sensor_id;sensor_type;location;lat;lon;timestamp;P1;durP1;ratioP1;P2;durP2;ratioP2
11267;SDS011;72685;47.474;9.416;2024-03-23T00:51:34;4.70;;;3.30;;
11267;SDS011;72685;47.474;9.416;2024-03-23T00:53:59;3.67;;;3.33;;
11267;SDS011;72685;47.474;9.416;2024-03-23T00:56:25;3.20;;;2.90;;
11267;SDS011;72685;47.474;9.416;2024-03-23T00:58:50;3.53;;;3.10;;
11267;SDS011;72685;47.474;9.416;2024-03-23T01:01:15;3.40;;;3.10;;
11267;SDS011;72685;47.474;9.416;2024-03-23T01:03:41;2.63;;;2.43;;
11267;SDS011;72685;47.474;9.416;2024-03-23T01:06:06;2.90;;;2.70;;
11267;SDS011;72685;47.474;9.416;2024-03-23T01:08:31;3.50;;;2.20;;
11267;SDS011;72685;47.474;9.416;2024-03-23T01:10:57;4.17;;;2.80;;
11267;SDS011;72685;47.474;9.416;2024-03-23T01:13:27;3.27;;;2.80;;
11267;SDS011;72685;47.474;9.416;2024-03-23T01:15:53;2.80;;;2.60;;
11267;SDS011;72685;47.474;9.416;2024-03-23T01:18:21;3.07;;;2.77;;
11267;SDS011;72685;47.474;9.416;2024-03-23T01:20:47;3.33;;;2.90;;
11267;SDS011;72685;47.474;9.416;2024-03-23T01:23:13;2.67;;;2.43;;
11267;SDS011;72685;47.474;9.416;2024-03-23T01:25:38;3.83;;;2.50;;
11267;SDS011;72685;47.474;9.416;2024-03-23T01:28:04;2.43;;;2.33;;
11267;SDS011;72685;47.474;9.416;2024-03-23T01:30:33;4.50;;;2.60;;
11267;SDS011;72685;47.474;9.416;2024-03-23T01:32:59;3.43;;;2.90;;
11267;SDS011;72685;47.474;9.416;2024-03-23T01:35:25;2.67;;;2.47;;
11267;SDS011;72685;47.474;9.416;2024-03-23T01:37:51;2.33;;;2.23;;
11267;SDS011;72685;47.474;9.416;2024-03-23T01:40:16;2.70;;;2.50;;
11267;SDS011;72685;47.474;9.416;2024-03-23T01:42:42;2.70;;;2.50;;
11267;SDS011;72685;47.474;9.416;2024-03-23T01:45:07;2.50;;;2.40;;
11267;SDS011;72685;47.474;9.416;2024-03-23T01:47:34;2.80;;;2.50;;
11267;SDS011;72685;47.474;9.416;2024-03-23T01:50:00;3.10;;;2.50;;
11267;SDS011;72685;47.474;9.416;2024-03-23T01:52:28;2.97;;;2.73;;
11267;SDS011;72685;47.474;9.416;2024-03-23T01:54:55;2.93;;;2.27;;
11267;SDS011;72685;47.474;9.416;2024-03-23T01:57:20;2.70;;;2.50;;
11267;SDS011;72685;47.474;9.416;2024-03-23T01:59:47;3.30;;;2.80;;
11267;SDS011;72685;47.474;9.416;2024-03-23T02:02:13;2.80;;;2.60;;
11267;SDS011;72685;47.474;9.416;2024-03-23T02:04:38;2.83;;;2.53;;
11267;SDS011;72685;47.474;9.416;2024-03-23T02:07:04;2.67;;;2.57;;
11267;SDS011;72685;47.474;9.416;2024-03-23T02:09:31;3.57;;;2.40;;
11267;SDS011;72685;47.474;9.416;2024-03-23T02:11:57;2.80;;;2.70;;
11267;SDS011;72685;47.474;9.416;2024-03-23T02:14:23;3.57;;;2.53;;
11267;SDS011;72685;47.474;9.416;2024-03-23T02:16:48;3.07;;;2.83;;
11267;SDS011;72685;47.474;9.416;2024-03-23T02:19:13;2.70;;;2.50;;
11267;SDS011;72685;47.474;9.416;2024-03-23T02:21:39;3.03;;;2.73;;
11267;SDS011;72685;47.474;9.416;2024-03-23T02:24:04;3.33;;;2.80;;
11267;SDS011;72685;47.474;9.416;2024-03-23T02:26:30;3.13;;;2.50;;
11267;SDS011;72685;47.474;9.416;2024-03-23T02:28:55;2.77;;;2.40;;
11267;SDS011;72685;47.474;9.416;2024-03-23T02:31:20;2.43;;;2.27;;
11267;SDS011;72685;47.474;9.416;2024-03-23T02:33:46;2.53;;;2.33;;
11267;SDS011;72685;47.474;9.416;2024-03-23T02:36:11;3.00;;;2.70;;
11267;SDS011;72685;47.474;9.416;2024-03-23T02:38:38;3.90;;;2.73;;
11267;SDS011;72685;47.474;9.416;2024-03-23T02:41:03;2.50;;;2.30;;
11267;SDS011;72685;47.474;9.416;2024-03-23T02:43:29;3.20;;;2.70;;
11267;SDS011;72685;47.474;9.416;2024-03-23T02:45:55;2.97;;;2.77;;
11267;SDS011;72685;47.474;9.416;2024-03-23T02:48:20;2.60;;;2.40;;
11267;SDS011;72685;47.474;9.416;2024-03-23T02:50:45;2.80;;;2.60;;
11267;SDS011;72685;47.474;9.416;2024-03-23T02:53:11;2.30;;;2.20;;
11267;SDS011;72685;47.474;9.416;2024-03-23T02:55:36;2.57;;;2.37;;
11267;SDS011;72685;47.474;9.416;2024-03-23T02:58:01;5.83;;;2.37;;
11267;SDS011;72685;47.474;9.416;2024-03-23T03:00:27;2.70;;;2.50;;
11267;SDS011;72685;47.474;9.416;2024-03-23T03:02:53;2.57;;;2.37;;
11267;SDS011;72685;47.474;9.416;2024-03-23T03:05:19;3.53;;;2.73;;
11267;SDS011;72685;47.474;9.416;2024-03-23T03:07:44;2.93;;;2.73;;
11267;SDS011;72685;47.474;9.416;2024-03-23T03:10:09;2.40;;;2.30;;
11267;SDS011;72685;47.474;9.416;2024-03-23T03:12:36;2.60;;;2.50;;
11267;SDS011;72685;47.474;9.416;2024-03-23T03:15:03;2.37;;;2.17;;
11267;SDS011;72685;47.474;9.416;2024-03-23T03:17:31;3.53;;;2.67;;
11267;SDS011;72685;47.474;9.416;2024-03-23T03:19:56;3.50;;;2.57;;
11267;SDS011;72685;47.474;9.416;2024-03-23T03:22:22;3.10;;;2.40;;
11267;SDS011;72685;47.474;9.416;2024-03-23T03:24:47;2.30;;;2.20;;
11267;SDS011;72685;47.474;9.416;2024-03-23T03:27:13;2.20;;;2.10;;
11267;SDS011;72685;47.474;9.416;2024-03-23T03:29:38;2.63;;;2.40;;
11267;SDS011;72685;47.474;9.416;2024-03-23T03:32:04;2.97;;;2.50;;
11267;SDS011;72685;47.474;9.416;2024-03-23T03:34:29;3.60;;;2.40;;
11267;SDS011;72685;47.474;9.416;2024-03-23T03:36:55;2.50;;;2.40;;
11267;SDS011;72685;47.474;9.416;2024-03-23T03:39:21;2.90;;;2.70;;
11267;SDS011;72685;47.474;9.416;2024-03-23T03:41:48;2.10;;;2.00;;
11267;SDS011;72685;47.474;9.416;2024-03-23T03:44:13;2.50;;;2.40;;
11267;SDS011;72685;47.474;9.416;2024-03-23T03:46:39;2.77;;;2.53;;
11267;SDS011;72685;47.474;9.416;2024-03-23T03:49:04;2.20;;;2.10;;
11267;SDS011;72685;47.474;9.416;2024-03-23T03:51:30;3.20;;;2.60;;
11267;SDS011;72685;47.474;9.416;2024-03-23T03:53:55;2.80;;;2.60;;
11267;SDS011;72685;47.474;9.416;2024-03-23T03:56:21;2.87;;;2.37;;
11267;SDS011;72685;47.474;9.416;2024-03-23T03:58:47;2.67;;;2.27;;
11267;SDS011;72685;47.474;9.416;2024-03-23T04:01:13;2.70;;;2.40;;
11267;SDS011;72685;47.474;9.416;2024-03-23T04:03:38;3.60;;;2.47;;
11267;SDS011;72685;47.474;9.416;2024-03-23T04:06:08;2.80;;;2.60;;
11267;SDS011;72685;47.474;9.416;2024-03-23T04:08:34;3.60;;;2.60;;
11267;SDS011;72685;47.474;9.416;2024-03-23T04:10:59;2.73;;;2.53;;
11267;SDS011;72685;47.474;9.416;2024-03-23T04:13:25;7.07;;;2.53;;
11267;SDS011;72685;47.474;9.416;2024-03-23T04:15:53;4.97;;;3.10;;
11267;SDS011;72685;47.474;9.416;2024-03-23T04:18:19;3.00;;;2.40;;
11267;SDS011;72685;47.474;9.416;2024-03-23T04:20:45;3.07;;;2.50;;
11267;SDS011;72685;47.474;9.416;2024-03-23T04:23:10;2.80;;;2.60;;
11267;SDS011;72685;47.474;9.416;2024-03-23T04:25:35;3.00;;;2.70;;
11267;SDS011;72685;47.474;9.416;2024-03-23T04:28:01;4.03;;;2.57;;
11267;SDS011;72685;47.474;9.416;2024-03-23T04:30:26;2.50;;;2.30;;
11267;SDS011;72685;47.474;9.416;2024-03-23T04:32:53;2.70;;;2.50;;
11267;SDS011;72685;47.474;9.416;2024-03-23T04:35:18;2.60;;;2.40;;
11267;SDS011;72685;47.474;9.416;2024-03-23T04:37:45;2.63;;;2.43;;
11267;SDS011;72685;47.474;9.416;2024-03-23T04:40:10;2.60;;;2.40;;
11267;SDS011;72685;47.474;9.416;2024-03-23T04:42:36;2.50;;;2.40;;
11267;SDS011;72685;47.474;9.416;2024-03-23T04:45:02;3.00;;;2.80;;
11267;SDS011;72685;47.474;9.416;2024-03-23T04:47:28;2.77;;;2.50;;
11267;SDS011;72685;47.474;9.416;2024-03-23T04:49:53;2.83;;;2.53;;
11267;SDS011;72685;47.474;9.416;2024-03-23T04:52:19;3.10;;;2.80;;
11267;SDS011;72685;47.474;9.416;2024-03-23T04:54:44;2.40;;;2.30;;
11267;SDS011;72685;47.474;9.416;2024-03-23T04:57:13;2.63;;;2.43;;
11267;SDS011;72685;47.474;9.416;2024-03-23T04:59:38;2.60;;;2.40;;
11267;SDS011;72685;47.474;9.416;2024-03-23T05:02:03;2.80;;;2.60;;
11267;SDS011;72685;47.474;9.416;2024-03-23T05:04:29;3.97;;;2.50;;
11267;SDS011;72685;47.474;9.416;2024-03-23T05:06:54;2.33;;;2.23;;
11267;SDS011;72685;47.474;9.416;2024-03-23T05:09:20;2.50;;;2.30;;
11267;SDS011;72685;47.474;9.416;2024-03-23T05:11:46;3.00;;;2.50;;
11267;SDS011;72685;47.474;9.416;2024-03-23T05:14:12;2.33;;;2.23;;
11267;SDS011;72685;47.474;9.416;2024-03-23T05:16:38;4.10;;;2.83;;
11267;SDS011;72685;47.474;9.416;2024-03-23T05:19:04;2.70;;;2.50;;
11267;SDS011;72685;47.474;9.416;2024-03-23T05:21:29;2.57;;;2.37;;
11267;SDS011;72685;47.474;9.416;2024-03-23T05:23:55;3.40;;;2.50;;
11267;SDS011;72685;47.474;9.416;2024-03-23T05:26:21;4.80;;;2.40;;
11267;SDS011;72685;47.474;9.416;2024-03-23T05:28:47;2.30;;;2.20;;
11267;SDS011;72685;47.474;9.416;2024-03-23T05:31:13;3.60;;;2.40;;
11267;SDS011;72685;47.474;9.416;2024-03-23T05:33:48;3.07;;;2.50;;
11267;SDS011;72685;47.474;9.416;2024-03-23T05:36:13;2.77;;;2.57;;
11267;SDS011;72685;47.474;9.416;2024-03-23T05:38:38;2.70;;;2.50;;
11267;SDS011;72685;47.474;9.416;2024-03-23T05:41:04;5.50;;;2.47;;
11267;SDS011;72685;47.474;9.416;2024-03-23T05:43:29;2.87;;;2.20;;
11267;SDS011;72685;47.474;9.416;2024-03-23T05:45:58;3.03;;;2.30;;
11267;SDS011;72685;47.474;9.416;2024-03-23T05:48:25;3.00;;;2.80;;
11267;SDS011;72685;47.474;9.416;2024-03-23T05:50:51;2.97;;;2.30;;
11267;SDS011;72685;47.474;9.416;2024-03-23T05:53:17;2.70;;;2.50;;
11267;SDS011;72685;47.474;9.416;2024-03-23T05:55:43;2.77;;;2.10;;
11267;SDS011;72685;47.474;9.416;2024-03-23T05:58:09;2.53;;;2.33;;
11267;SDS011;72685;47.474;9.416;2024-03-23T06:00:35;3.97;;;2.30;;
11267;SDS011;72685;47.474;9.416;2024-03-23T06:03:01;2.80;;;2.67;;
11267;SDS011;72685;47.474;9.416;2024-03-23T06:05:26;2.67;;;2.57;;
11267;SDS011;72685;47.474;9.416;2024-03-23T06:07:52;2.63;;;2.50;;
11267;SDS011;72685;47.474;9.416;2024-03-23T06:10:18;3.10;;;2.90;;
11267;SDS011;72685;47.474;9.416;2024-03-23T06:12:43;2.87;;;2.67;;
11267;SDS011;72685;47.474;9.416;2024-03-23T06:15:10;4.97;;;2.63;;
11267;SDS011;72685;47.474;9.416;2024-03-23T06:17:36;3.67;;;3.23;;
11267;SDS011;72685;47.474;9.416;2024-03-23T06:20:02;3.27;;;3.07;;
11267;SDS011;72685;47.474;9.416;2024-03-23T06:22:28;3.50;;;3.20;;
11267;SDS011;72685;47.474;9.416;2024-03-23T06:24:53;3.87;;;3.13;;
11267;SDS011;72685;47.474;9.416;2024-03-23T06:27:19;3.50;;;3.17;;
11267;SDS011;72685;47.474;9.416;2024-03-23T06:29:44;5.63;;;4.00;;
11267;SDS011;72685;47.474;9.416;2024-03-23T06:32:09;3.90;;;3.57;;
11267;SDS011;72685;47.474;9.416;2024-03-23T06:34:35;5.17;;;4.13;;
11267;SDS011;72685;47.474;9.416;2024-03-23T06:37:00;3.97;;;3.50;;
11267;SDS011;72685;47.474;9.416;2024-03-23T06:39:25;5.33;;;4.00;;
11267;SDS011;72685;47.474;9.416;2024-03-23T06:41:51;4.37;;;3.87;;
11267;SDS011;72685;47.474;9.416;2024-03-23T06:44:18;5.03;;;4.10;;
11267;SDS011;72685;47.474;9.416;2024-03-23T06:46:44;5.70;;;4.57;;
11267;SDS011;72685;47.474;9.416;2024-03-23T06:49:10;4.10;;;3.80;;
11267;SDS011;72685;47.474;9.416;2024-03-23T06:51:35;5.67;;;4.40;;
11267;SDS011;72685;47.474;9.416;2024-03-23T06:54:02;4.57;;;4.07;;
11267;SDS011;72685;47.474;9.416;2024-03-23T06:56:28;4.57;;;4.17;;
11267;SDS011;72685;47.474;9.416;2024-03-23T06:58:54;4.80;;;4.30;;
11267;SDS011;72685;47.474;9.416;2024-03-23T07:01:19;5.83;;;4.33;;
11267;SDS011;72685;47.474;9.416;2024-03-23T07:03:44;4.30;;;3.90;;
11267;SDS011;72685;47.474;9.416;2024-03-23T07:06:10;4.77;;;3.83;;
11267;SDS011;72685;47.474;9.416;2024-03-23T07:08:35;5.30;;;4.20;;
11267;SDS011;72685;47.474;9.416;2024-03-23T07:11:01;5.17;;;4.30;;
11267;SDS011;72685;47.474;9.416;2024-03-23T07:13:27;4.57;;;3.60;;
11267;SDS011;72685;47.474;9.416;2024-03-23T07:15:53;6.90;;;4.70;;
11267;SDS011;72685;47.474;9.416;2024-03-23T07:18:20;6.93;;;4.63;;
11267;SDS011;72685;47.474;9.416;2024-03-23T07:20:54;6.67;;;4.10;;
11267;SDS011;72685;47.474;9.416;2024-03-23T07:23:23;4.17;;;3.77;;
11267;SDS011;72685;47.474;9.416;2024-03-23T07:25:59;5.37;;;3.97;;
11267;SDS011;72685;47.474;9.416;2024-03-23T07:28:33;4.60;;;4.20;;
11267;SDS011;72685;47.474;9.416;2024-03-23T07:33:41;4.47;;;4.07;;
11267;SDS011;72685;47.474;9.416;2024-03-23T07:36:07;4.53;;;3.97;;
11267;SDS011;72685;47.474;9.416;2024-03-23T07:38:33;5.33;;;4.33;;
11267;SDS011;72685;47.474;9.416;2024-03-23T07:41:02;4.17;;;3.87;;
11267;SDS011;72685;47.474;9.416;2024-03-23T07:43:31;8.57;;;4.60;;
11267;SDS011;72685;47.474;9.416;2024-03-23T07:45:56;9.47;;;4.40;;
11267;SDS011;72685;47.474;9.416;2024-03-23T07:48:22;5.53;;;3.93;;
11267;SDS011;72685;47.474;9.416;2024-03-23T07:50:57;5.33;;;4.50;;
11267;SDS011;72685;47.474;9.416;2024-03-23T07:53:33;8.13;;;5.13;;
11267;SDS011;72685;47.474;9.416;2024-03-23T07:56:00;6.67;;;4.47;;
11267;SDS011;72685;47.474;9.416;2024-03-23T07:58:29;4.10;;;3.70;;
11267;SDS011;72685;47.474;9.416;2024-03-23T08:00:55;7.97;;;5.07;;
11267;SDS011;72685;47.474;9.416;2024-03-23T08:03:21;7.90;;;4.47;;
11267;SDS011;72685;47.474;9.416;2024-03-23T08:05:47;7.47;;;5.53;;
11267;SDS011;72685;47.474;9.416;2024-03-23T08:08:12;5.80;;;5.00;;
11267;SDS011;72685;47.474;9.416;2024-03-23T08:10:50;5.90;;;4.40;;
11267;SDS011;72685;47.474;9.416;2024-03-23T08:13:17;4.97;;;4.47;;
11267;SDS011;72685;47.474;9.416;2024-03-23T08:15:43;5.70;;;5.10;;
11267;SDS011;72685;47.474;9.416;2024-03-23T08:18:10;6.97;;;4.70;;
11267;SDS011;72685;47.474;9.416;2024-03-23T08:20:40;7.97;;;5.13;;
11267;SDS011;72685;47.474;9.416;2024-03-23T08:23:06;4.77;;;4.37;;
11267;SDS011;72685;47.474;9.416;2024-03-23T08:25:32;5.37;;;4.80;;
11267;SDS011;72685;47.474;9.416;2024-03-23T08:27:58;5.93;;;4.47;;
11267;SDS011;72685;47.474;9.416;2024-03-23T08:30:23;5.60;;;4.57;;
11267;SDS011;72685;47.474;9.416;2024-03-23T08:32:49;8.57;;;5.40;;
11267;SDS011;72685;47.474;9.416;2024-03-23T08:35:14;6.87;;;4.83;;
11267;SDS011;72685;47.474;9.416;2024-03-23T08:37:40;4.93;;;4.47;;
11267;SDS011;72685;47.474;9.416;2024-03-23T08:40:06;4.60;;;4.10;;
11267;SDS011;72685;47.474;9.416;2024-03-23T08:42:33;4.60;;;4.20;;
11267;SDS011;72685;47.474;9.416;2024-03-23T08:44:59;4.97;;;4.20;;
11267;SDS011;72685;47.474;9.416;2024-03-23T08:47:24;7.03;;;4.13;;
11267;SDS011;72685;47.474;9.416;2024-03-23T08:49:49;4.27;;;3.87;;
11267;SDS011;72685;47.474;9.416;2024-03-23T08:52:15;4.60;;;3.63;;
11267;SDS011;72685;47.474;9.416;2024-03-23T08:54:40;3.93;;;3.53;;
11267;SDS011;72685;47.474;9.416;2024-03-23T08:57:06;3.80;;;3.50;;
11267;SDS011;72685;47.474;9.416;2024-03-23T08:59:32;3.40;;;3.10;;
11267;SDS011;72685;47.474;9.416;2024-03-23T09:01:57;4.60;;;2.93;;
11267;SDS011;72685;47.474;9.416;2024-03-23T09:04:23;3.50;;;3.17;;
11267;SDS011;72685;47.474;9.416;2024-03-23T09:06:48;2.70;;;2.50;;
11267;SDS011;72685;47.474;9.416;2024-03-23T09:09:14;2.90;;;2.70;;
11267;SDS011;72685;47.474;9.416;2024-03-23T09:11:40;2.60;;;2.40;;
11267;SDS011;72685;47.474;9.416;2024-03-23T09:14:05;2.53;;;2.33;;
11267;SDS011;72685;47.474;9.416;2024-03-23T09:16:30;2.40;;;2.20;;
11267;SDS011;72685;47.474;9.416;2024-03-23T09:18:56;1.90;;;1.80;;
11267;SDS011;72685;47.474;9.416;2024-03-23T09:21:21;4.10;;;2.00;;
11267;SDS011;72685;47.474;9.416;2024-03-23T09:23:46;1.80;;;1.70;;
11267;SDS011;72685;47.474;9.416;2024-03-23T09:26:12;1.90;;;1.80;;
11267;SDS011;72685;47.474;9.416;2024-03-23T09:28:38;1.67;;;1.60;;
11267;SDS011;72685;47.474;9.416;2024-03-23T09:31:03;1.60;;;1.60;;
11267;SDS011;72685;47.474;9.416;2024-03-23T09:33:29;1.80;;;1.70;;
11267;SDS011;72685;47.474;9.416;2024-03-23T09:35:54;1.60;;;1.50;;
11267;SDS011;72685;47.474;9.416;2024-03-23T09:38:21;1.60;;;1.50;;
11267;SDS011;72685;47.474;9.416;2024-03-23T09:40:48;1.90;;;1.80;;
11267;SDS011;72685;47.474;9.416;2024-03-23T09:43:18;1.43;;;1.43;;
11267;SDS011;72685;47.474;9.416;2024-03-23T09:45:44;1.57;;;1.50;;
11267;SDS011;72685;47.474;9.416;2024-03-23T09:48:10;1.57;;;1.57;;
11267;SDS011;72685;47.474;9.416;2024-03-23T09:50:39;1.67;;;1.67;;
11267;SDS011;72685;47.474;9.416;2024-03-23T09:53:09;1.70;;;1.60;;
11267;SDS011;72685;47.474;9.416;2024-03-23T09:55:42;1.70;;;1.60;;
11267;SDS011;72685;47.474;9.416;2024-03-23T09:58:12;1.60;;;1.60;;
11267;SDS011;72685;47.474;9.416;2024-03-23T10:00:38;2.30;;;1.80;;
11267;SDS011;72685;47.474;9.416;2024-03-23T10:03:04;3.07;;;1.80;;
11267;SDS011;72685;47.474;9.416;2024-03-23T10:05:31;1.83;;;1.73;;
11267;SDS011;72685;47.474;9.416;2024-03-23T10:07:59;2.10;;;2.00;;
11267;SDS011;72685;47.474;9.416;2024-03-23T10:10:25;2.37;;;1.70;;
11267;SDS011;72685;47.474;9.416;2024-03-23T10:12:51;3.00;;;1.83;;
11267;SDS011;72685;47.474;9.416;2024-03-23T10:15:21;2.70;;;2.03;;
11267;SDS011;72685;47.474;9.416;2024-03-23T10:17:48;1.83;;;1.73;;
11267;SDS011;72685;47.474;9.416;2024-03-23T10:20:17;3.37;;;1.90;;
11267;SDS011;72685;47.474;9.416;2024-03-23T10:22:44;4.43;;;1.90;;
11267;SDS011;72685;47.474;9.416;2024-03-23T10:25:10;2.93;;;1.93;;
11267;SDS011;72685;47.474;9.416;2024-03-23T10:27:36;1.70;;;1.60;;
11267;SDS011;72685;47.474;9.416;2024-03-23T10:30:08;4.20;;;1.77;;
11267;SDS011;72685;47.474;9.416;2024-03-23T10:32:34;5.17;;;2.33;;
11267;SDS011;72685;47.474;9.416;2024-03-23T10:35:16;6.57;;;2.20;;
11267;SDS011;72685;47.474;9.416;2024-03-23T10:37:44;2.53;;;1.73;;
11267;SDS011;72685;47.474;9.416;2024-03-23T10:40:10;2.10;;;2.00;;
11267;SDS011;72685;47.474;9.416;2024-03-23T10:42:37;3.17;;;2.37;;
11267;SDS011;72685;47.474;9.416;2024-03-23T10:45:04;2.67;;;2.00;;
11267;SDS011;72685;47.474;9.416;2024-03-23T10:47:30;4.30;;;1.87;;
11267;SDS011;72685;47.474;9.416;2024-03-23T10:49:55;2.53;;;1.97;;
11267;SDS011;72685;47.474;9.416;2024-03-23T10:52:20;3.93;;;2.00;;
11267;SDS011;72685;47.474;9.416;2024-03-23T10:54:46;4.73;;;2.20;;
11267;SDS011;72685;47.474;9.416;2024-03-23T10:57:17;4.03;;;2.90;;
11267;SDS011;72685;47.474;9.416;2024-03-23T10:59:45;6.40;;;2.43;;
11267;SDS011;72685;47.474;9.416;2024-03-23T11:02:20;3.60;;;2.47;;
11267;SDS011;72685;47.474;9.416;2024-03-23T11:04:47;4.37;;;2.80;;
11267;SDS011;72685;47.474;9.416;2024-03-23T11:07:32;6.57;;;2.60;;
11267;SDS011;72685;47.474;9.416;2024-03-23T11:09:59;2.53;;;2.23;;
11267;SDS011;72685;47.474;9.416;2024-03-23T11:12:28;2.37;;;2.17;;
11267;SDS011;72685;47.474;9.416;2024-03-23T11:15:00;5.17;;;2.53;;
11267;SDS011;72685;47.474;9.416;2024-03-23T11:17:27;3.87;;;2.63;;
11267;SDS011;72685;47.474;9.416;2024-03-23T11:22:44;7.83;;;2.77;;
11267;SDS011;72685;47.474;9.416;2024-03-23T11:25:21;3.83;;;2.97;;
11267;SDS011;72685;47.474;9.416;2024-03-23T11:27:49;5.63;;;2.50;;
11267;SDS011;72685;47.474;9.416;2024-03-23T11:30:19;5.00;;;2.73;;
11267;SDS011;72685;47.474;9.416;2024-03-23T11:32:49;2.80;;;2.60;;
11267;SDS011;72685;47.474;9.416;2024-03-23T11:38:08;3.70;;;2.73;;
11267;SDS011;72685;47.474;9.416;2024-03-23T11:40:38;5.17;;;2.93;;
11267;SDS011;72685;47.474;9.416;2024-03-23T11:43:06;3.40;;;2.30;;
11267;SDS011;72685;47.474;9.416;2024-03-23T11:45:36;5.17;;;2.50;;
11267;SDS011;72685;47.474;9.416;2024-03-23T11:50:45;6.43;;;3.53;;
11267;SDS011;72685;47.474;9.416;2024-03-23T11:55:47;4.40;;;2.73;;
11267;SDS011;72685;47.474;9.416;2024-03-23T11:58:22;5.50;;;2.70;;
11267;SDS011;72685;47.474;9.416;2024-03-23T12:00:58;2.97;;;2.77;;
11267;SDS011;72685;47.474;9.416;2024-03-23T12:03:28;8.13;;;2.70;;
11267;SDS011;72685;47.474;9.416;2024-03-23T12:05:54;2.73;;;2.20;;
11267;SDS011;72685;47.474;9.416;2024-03-23T12:08:28;4.60;;;2.37;;
11267;SDS011;72685;47.474;9.416;2024-03-23T12:11:08;3.90;;;2.50;;
11267;SDS011;72685;47.474;9.416;2024-03-23T12:13:35;6.57;;;3.00;;
11267;SDS011;72685;47.474;9.416;2024-03-23T12:18:36;5.93;;;2.43;;
11267;SDS011;72685;47.474;9.416;2024-03-23T12:21:02;9.23;;;3.70;;
11267;SDS011;72685;47.474;9.416;2024-03-23T12:23:28;7.97;;;2.70;;
11267;SDS011;72685;47.474;9.416;2024-03-23T12:25:53;4.20;;;2.40;;
11267;SDS011;72685;47.474;9.416;2024-03-23T12:28:19;3.93;;;2.97;;
11267;SDS011;72685;47.474;9.416;2024-03-23T12:30:44;6.40;;;2.93;;
11267;SDS011;72685;47.474;9.416;2024-03-23T12:33:10;5.57;;;2.57;;
11267;SDS011;72685;47.474;9.416;2024-03-23T12:35:35;4.83;;;2.40;;
11267;SDS011;72685;47.474;9.416;2024-03-23T12:38:00;6.20;;;2.73;;
11267;SDS011;72685;47.474;9.416;2024-03-23T12:40:26;5.40;;;3.20;;
11267;SDS011;72685;47.474;9.416;2024-03-23T12:42:52;3.47;;;2.47;;
11267;SDS011;72685;47.474;9.416;2024-03-23T12:45:18;4.53;;;2.43;;
11267;SDS011;72685;47.474;9.416;2024-03-23T12:47:43;3.73;;;2.57;;
11267;SDS011;72685;47.474;9.416;2024-03-23T12:50:09;3.00;;;1.80;;
11267;SDS011;72685;47.474;9.416;2024-03-23T12:52:35;2.63;;;2.33;;
11267;SDS011;72685;47.474;9.416;2024-03-23T12:55:01;3.80;;;2.23;;
11267;SDS011;72685;47.474;9.416;2024-03-23T12:57:26;8.43;;;2.30;;
11267;SDS011;72685;47.474;9.416;2024-03-23T12:59:52;5.63;;;2.70;;
11267;SDS011;72685;47.474;9.416;2024-03-23T13:02:18;4.70;;;3.13;;
11267;SDS011;72685;47.474;9.416;2024-03-23T13:04:45;2.10;;;2.00;;
11267;SDS011;72685;47.474;9.416;2024-03-23T13:07:18;2.77;;;2.40;;
11267;SDS011;72685;47.474;9.416;2024-03-23T13:09:44;3.63;;;2.27;;
11267;SDS011;72685;47.474;9.416;2024-03-23T13:12:10;5.03;;;2.50;;
11267;SDS011;72685;47.474;9.416;2024-03-23T13:14:37;3.67;;;2.23;;
11267;SDS011;72685;47.474;9.416;2024-03-23T13:17:03;2.90;;;2.07;;
11267;SDS011;72685;47.474;9.416;2024-03-23T13:19:29;2.30;;;1.90;;
11267;SDS011;72685;47.474;9.416;2024-03-23T13:21:56;4.10;;;2.00;;
11267;SDS011;72685;47.474;9.416;2024-03-23T13:24:23;2.97;;;1.90;;
11267;SDS011;72685;47.474;9.416;2024-03-23T13:26:50;3.37;;;2.67;;
11267;SDS011;72685;47.474;9.416;2024-03-23T13:29:16;3.47;;;1.73;;
11267;SDS011;72685;47.474;9.416;2024-03-23T13:31:42;2.87;;;1.90;;
11267;SDS011;72685;47.474;9.416;2024-03-23T13:34:07;1.87;;;1.73;;
11267;SDS011;72685;47.474;9.416;2024-03-23T13:36:33;6.70;;;2.40;;
11267;SDS011;72685;47.474;9.416;2024-03-23T13:38:58;4.17;;;2.20;;
11267;SDS011;72685;47.474;9.416;2024-03-23T13:41:24;4.70;;;2.67;;
11267;SDS011;72685;47.474;9.416;2024-03-23T13:43:49;3.63;;;2.33;;
11267;SDS011;72685;47.474;9.416;2024-03-23T13:46:15;9.03;;;2.90;;
11267;SDS011;72685;47.474;9.416;2024-03-23T13:48:40;5.93;;;2.70;;
11267;SDS011;72685;47.474;9.416;2024-03-23T13:51:07;5.93;;;2.20;;
11267;SDS011;72685;47.474;9.416;2024-03-23T13:53:32;3.13;;;2.27;;
11267;SDS011;72685;47.474;9.416;2024-03-23T13:55:58;3.60;;;2.40;;
11267;SDS011;72685;47.474;9.416;2024-03-23T13:58:23;2.13;;;2.03;;
11267;SDS011;72685;47.474;9.416;2024-03-23T14:00:50;3.57;;;2.53;;
11267;SDS011;72685;47.474;9.416;2024-03-23T14:03:16;3.50;;;2.50;;
11267;SDS011;72685;47.474;9.416;2024-03-23T14:05:42;9.37;;;2.93;;
11267;SDS011;72685;47.474;9.416;2024-03-23T14:08:07;3.47;;;2.30;;
11267;SDS011;72685;47.474;9.416;2024-03-23T14:10:34;3.80;;;2.10;;
11267;SDS011;72685;47.474;9.416;2024-03-23T14:13:01;7.03;;;2.37;;
11267;SDS011;72685;47.474;9.416;2024-03-23T14:15:27;3.93;;;2.23;;
11267;SDS011;72685;47.474;9.416;2024-03-23T14:17:52;8.00;;;2.70;;
11267;SDS011;72685;47.474;9.416;2024-03-23T14:20:19;3.27;;;2.50;;
11267;SDS011;72685;47.474;9.416;2024-03-23T14:22:45;2.73;;;2.30;;
11267;SDS011;72685;47.474;9.416;2024-03-23T14:25:10;3.13;;;2.80;;
11267;SDS011;72685;47.474;9.416;2024-03-23T14:27:36;4.40;;;2.50;;
11267;SDS011;72685;47.474;9.416;2024-03-23T14:30:03;3.20;;;2.67;;
11267;SDS011;72685;47.474;9.416;2024-03-23T14:32:32;4.03;;;2.73;;
11267;SDS011;72685;47.474;9.416;2024-03-23T14:35:05;5.43;;;2.00;;
11267;SDS011;72685;47.474;9.416;2024-03-23T14:37:38;7.43;;;2.70;;
11267;SDS011;72685;47.474;9.416;2024-03-23T14:40:05;5.90;;;2.73;;
11267;SDS011;72685;47.474;9.416;2024-03-23T14:42:31;3.63;;;2.47;;
11267;SDS011;72685;47.474;9.416;2024-03-23T14:44:57;4.07;;;2.63;;
11267;SDS011;72685;47.474;9.416;2024-03-23T14:47:23;2.47;;;2.30;;
11267;SDS011;72685;47.474;9.416;2024-03-23T14:49:48;4.30;;;2.20;;
11267;SDS011;72685;47.474;9.416;2024-03-23T14:52:18;6.43;;;2.83;;
11267;SDS011;72685;47.474;9.416;2024-03-23T14:54:44;6.27;;;2.37;;
11267;SDS011;72685;47.474;9.416;2024-03-23T14:57:10;5.63;;;3.00;;
11267;SDS011;72685;47.474;9.416;2024-03-23T14:59:36;6.47;;;3.07;;
11267;SDS011;72685;47.474;9.416;2024-03-23T15:02:03;4.77;;;3.57;;
11267;SDS011;72685;47.474;9.416;2024-03-23T15:04:32;3.67;;;2.47;;
11267;SDS011;72685;47.474;9.416;2024-03-23T15:06:57;2.40;;;2.30;;
11267;SDS011;72685;47.474;9.416;2024-03-23T15:09:23;4.93;;;2.67;;
11267;SDS011;72685;47.474;9.416;2024-03-23T15:11:48;3.27;;;2.13;;
11267;SDS011;72685;47.474;9.416;2024-03-23T15:14:13;5.83;;;2.30;;
11267;SDS011;72685;47.474;9.416;2024-03-23T15:16:39;3.57;;;1.90;;
11267;SDS011;72685;47.474;9.416;2024-03-23T15:19:04;3.07;;;2.17;;
11267;SDS011;72685;47.474;9.416;2024-03-23T15:21:31;2.63;;;2.43;;
11267;SDS011;72685;47.474;9.416;2024-03-23T15:23:57;5.57;;;2.30;;
11267;SDS011;72685;47.474;9.416;2024-03-23T15:26:22;6.43;;;2.40;;
11267;SDS011;72685;47.474;9.416;2024-03-23T15:28:48;5.47;;;2.57;;
11267;SDS011;72685;47.474;9.416;2024-03-23T15:31:22;5.53;;;2.23;;
11267;SDS011;72685;47.474;9.416;2024-03-23T15:33:48;5.30;;;2.40;;
11267;SDS011;72685;47.474;9.416;2024-03-23T15:36:13;5.20;;;2.07;;
11267;SDS011;72685;47.474;9.416;2024-03-23T15:38:38;4.10;;;2.30;;
11267;SDS011;72685;47.474;9.416;2024-03-23T15:41:04;2.40;;;2.30;;
11267;SDS011;72685;47.474;9.416;2024-03-23T15:43:29;2.93;;;2.63;;
11267;SDS011;72685;47.474;9.416;2024-03-23T15:45:56;3.37;;;2.47;;
11267;SDS011;72685;47.474;9.416;2024-03-23T15:48:29;4.03;;;2.10;;
11267;SDS011;72685;47.474;9.416;2024-03-23T15:51:01;3.33;;;2.67;;